Time;durP1;ratioP1;P1;durP2;ratioP2;P2;SDS_P1;SDS_P2;PMS_P1;PMS_P2;Temp;Humidity;BMP_temperature;BMP_pressure;BME280_temperature;BME280_humidity;BME280_pressure;Samples;Min_cycle;Max_cycle;Signal;HPM_P1;HPM_P2
2024/01/08 00:02:59;;;;;;;0.40;0.40;;;3.10;93.30;;;;;;10447946;28;20608;-77
2024/01/08 00:08:01;;;;;;;0.40;0.40;;;3.10;93.90;;;;;;10433285;28;20206;-77
2024/01/08 00:13:05;;;;;;;0.50;0.50;;;3.00;92.80;;;;;;10447720;28;20549;-77
2024/01/08 00:18:08;;;;;;;0.40;0.40;;;3.00;93.30;;;;;;10431353;28;20251;-76
2024/01/08 00:23:10;;;;;;;0.50;0.50;;;3.00;93.00;;;;;;10454394;28;20300;-77
2024/01/08 00:28:14;;;;;;;0.70;0.70;;;2.90;92.10;;;;;;10433666;28;20204;-77
2024/01/08 00:33:16;;;;;;;0.40;0.40;;;2.90;93.10;;;;;;10450211;28;20202;-76
2024/01/08 00:38:19;;;;;;;0.40;0.40;;;2.90;92.70;;;;;;10421335;28;20630;-77
2024/01/08 00:43:22;;;;;;;0.40;0.40;;;2.90;92.90;;;;;;10405440;28;20695;-78
2024/01/08 00:48:25;;;;;;;0.43;0.43;;;2.90;92.40;;;;;;10396162;28;20228;-78
2024/01/08 00:53:27;;;;;;;0.37;0.37;;;2.90;92.50;;;;;;10424939;28;20193;-78
2024/01/08 00:58:31;;;;;;;0.30;0.30;;;2.90;91.30;;;;;;10454843;28;20267;-77
2024/01/08 01:03:33;;;;;;;0.40;0.40;;;2.90;92.50;;;;;;10434679;28;20254;-77
2024/01/08 01:08:36;;;;;;;0.40;0.40;;;2.90;91.80;;;;;;10444132;28;20590;-79
2024/01/08 01:13:40;;;;;;;0.40;0.40;;;2.90;91.50;;;;;;10452027;28;20198;-77
2024/01/08 01:18:42;;;;;;;0.40;0.40;;;2.80;91.50;;;;;;10444093;28;20267;-78
2024/01/08 01:23:44;;;;;;;0.50;0.50;;;2.80;92.40;;;;;;10427068;28;20694;-77
2024/01/08 01:28:48;;;;;;;0.40;0.40;;;2.80;92.10;;;;;;10439863;28;20218;-75
2024/01/08 01:33:50;;;;;;;0.40;0.40;;;2.80;92.00;;;;;;10453321;28;20197;-77
2024/01/08 01:38:53;;;;;;;0.40;0.40;;;2.80;91.50;;;;;;10431295;28;20299;-76
2024/01/08 01:43:57;;;;;;;0.30;0.30;;;2.90;91.30;;;;;;10445523;28;20714;-75
2024/01/08 01:48:59;;;;;;;0.40;0.40;;;2.90;91.60;;;;;;10435781;28;20274;-77
2024/01/08 01:54:01;;;;;;;0.40;0.40;;;2.90;91.80;;;;;;10431094;28;20198;-76
2024/01/08 01:59:08;;;;;;;0.40;0.40;;;2.80;91.20;;;;;;10450828;28;20228;-77
2024/01/08 02:04:10;;;;;;;0.43;0.43;;;2.80;95.10;;;;;;10422592;28;20228;-78
2024/01/08 02:09:15;;;;;;;0.50;0.50;;;2.90;95.80;;;;;;10450921;28;20266;-77
2024/01/08 02:14:19;;;;;;;0.50;0.50;;;2.90;96.90;;;;;;10452342;28;20244;-77
2024/01/08 02:19:21;;;;;;;0.40;0.40;;;2.90;97.70;;;;;;10438286;28;20230;-77
2024/01/08 02:24:27;;;;;;;0.40;0.40;;;2.90;96.10;;;;;;10432957;28;20695;-75
2024/01/08 02:29:30;;;;;;;0.40;0.40;;;2.90;96.00;;;;;;10443501;28;20233;-75
2024/01/08 02:34:33;;;;;;;0.50;0.50;;;2.90;97.10;;;;;;10434960;28;20251;-77
2024/01/08 02:39:37;;;;;;;0.50;0.50;;;2.90;97.50;;;;;;10447379;28;20649;-77
2024/01/08 02:44:39;;;;;;;0.50;0.50;;;2.90;96.10;;;;;;10438575;28;20263;-78
2024/01/08 02:49:42;;;;;;;0.40;0.40;;;2.90;97.10;;;;;;10451374;28;20267;-77
2024/01/08 02:54:45;;;;;;;0.40;0.40;;;2.90;93.60;;;;;;10445559;28;20202;-78
2024/01/08 02:59:48;;;;;;;0.40;0.40;;;2.90;96.70;;;;;;10445809;28;20643;-77
2024/01/08 03:04:50;;;;;;;0.50;0.50;;;2.90;96.30;;;;;;10447497;28;20209;-78
2024/01/08 03:09:56;;;;;;;0.50;0.50;;;2.90;95.60;;;;;;10456615;28;20221;-77
2024/01/08 03:14:59;;;;;;;0.50;0.50;;;3.00;96.60;;;;;;10451066;28;20197;-77
2024/01/08 03:20:02;;;;;;;0.50;0.50;;;2.90;96.20;;;;;;10450227;28;20768;-76
2024/01/08 03:25:07;;;;;;;0.50;0.50;;;2.90;93.90;;;;;;10440592;28;20225;-76
2024/01/08 03:30:10;;;;;;;0.40;0.40;;;3.00;95.50;;;;;;10450449;28;20218;-77
2024/01/08 03:35:13;;;;;;;0.50;0.50;;;3.00;95.60;;;;;;10457813;28;20189;-76
2024/01/08 03:40:16;;;;;;;0.50;0.50;;;3.00;96.10;;;;;;10507090;22;20231;-79
2024/01/08 03:45:19;;;;;;;0.57;0.57;;;3.00;95.10;;;;;;10567469;28;20251;-77
2024/01/08 03:50:21;;;;;;;0.70;0.70;;;3.00;95.00;;;;;;10545521;28;20209;-80
2024/01/08 03:55:25;;;;;;;0.40;0.40;;;3.00;95.00;;;;;;10528134;28;20192;-78
2024/01/08 04:00:27;;;;;;;0.50;0.50;;;3.00;95.20;;;;;;10517982;28;20270;-78
2024/01/08 04:05:29;;;;;;;0.50;0.50;;;3.00;94.10;;;;;;10519230;28;20285;-78
2024/01/08 04:10:33;;;;;;;0.80;0.80;;;2.90;95.10;;;;;;10525662;28;20208;-78
2024/01/08 04:15:35;;;;;;;0.70;0.70;;;2.90;94.90;;;;;;10506623;28;20310;-79
2024/01/08 04:20:38;;;;;;;0.50;0.50;;;2.90;94.50;;;;;;10525260;28;20224;-79
2024/01/08 04:25:42;;;;;;;0.80;0.80;;;2.90;94.00;;;;;;10514117;28;20208;-79
2024/01/08 04:30:44;;;;;;;0.70;0.70;;;2.80;94.60;;;;;;10528161;28;20269;-79
2024/01/08 04:35:46;;;;;;;0.50;0.50;;;2.70;95.30;;;;;;10519497;28;20627;-79
2024/01/08 04:40:50;;;;;;;0.70;0.70;;;2.80;94.80;;;;;;10528215;28;20227;-78
2024/01/08 04:45:52;;;;;;;0.60;0.60;;;2.80;95.10;;;;;;10520652;28;20720;-79
2024/01/08 04:50:55;;;;;;;0.60;0.60;;;2.80;94.10;;;;;;10527594;28;20544;-77
2024/01/08 04:55:58;;;;;;;0.60;0.60;;;2.70;94.70;;;;;;10528702;28;20218;-78
2024/01/08 05:01:01;;;;;;;0.70;0.70;;;2.70;93.20;;;;;;10518474;28;20234;-76
2024/01/08 05:06:04;;;;;;;0.60;0.60;;;2.70;94.50;;;;;;10517104;28;20603;-79
2024/01/08 05:11:08;;;;;;;0.50;0.50;;;2.70;95.80;;;;;;10520180;28;20223;-79
2024/01/08 05:16:10;;;;;;;0.60;0.60;;;2.80;94.90;;;;;;10534106;28;20196;-79
2024/01/08 05:21:15;;;;;;;0.60;0.60;;;2.80;93.80;;;;;;10511659;28;20235;-79
2024/01/08 05:26:18;;;;;;;0.60;0.60;;;2.80;94.30;;;;;;10508187;28;20623;-77
2024/01/08 05:31:22;;;;;;;0.60;0.60;;;2.80;94.10;;;;;;10536230;28;20217;-79
2024/01/08 05:36:24;;;;;;;0.60;0.60;;;2.80;94.60;;;;;;10529228;28;20196;-78
2024/01/08 05:41:28;;;;;;;0.40;0.40;;;2.80;94.40;;;;;;10510964;28;20278;-78
2024/01/08 05:46:31;;;;;;;0.33;0.33;;;2.80;93.90;;;;;;10519957;28;20644;-79
2024/01/08 05:51:34;;;;;;;0.50;0.50;;;2.80;94.10;;;;;;10504933;28;20228;-79
2024/01/08 05:56:38;;;;;;;0.40;0.40;;;2.80;93.60;;;;;;10515869;28;20254;-80
2024/01/08 06:01:42;;;;;;;0.60;0.60;;;2.70;94.20;;;;;;10518582;28;20228;-77
2024/01/08 06:06:44;;;;;;;0.60;0.60;;;2.70;93.30;;;;;;10525193;28;20220;-79
2024/01/08 06:11:48;;;;;;;0.40;0.40;;;2.60;93.30;;;;;;10522453;28;20213;-80
2024/01/08 06:16:50;;;;;;;0.50;0.50;;;2.60;93.80;;;;;;10505056;28;20309;-78
2024/01/08 06:21:52;;;;;;;0.50;0.50;;;2.60;91.10;;;;;;10510746;28;20207;-77
2024/01/08 06:26:56;;;;;;;0.40;0.40;;;2.60;93.80;;;;;;10512447;28;20677;-80
2024/01/08 06:31:58;;;;;;;0.50;0.50;;;2.60;93.00;;;;;;10515016;28;20232;-79
2024/01/08 06:37:01;;;;;;;0.60;0.60;;;2.60;93.40;;;;;;10512975;28;20195;-77
2024/01/08 06:42:05;;;;;;;0.50;0.50;;;2.50;92.80;;;;;;10521427;28;20239;-80
2024/01/08 06:47:07;;;;;;;0.50;0.50;;;2.50;92.10;;;;;;10515131;28;20744;-79
2024/01/08 06:52:10;;;;;;;0.33;0.33;;;2.50;91.20;;;;;;10523626;28;20228;-79
2024/01/08 06:57:13;;;;;;;0.40;0.40;;;2.40;91.80;;;;;;10535806;28;20206;-78
2024/01/08 07:02:16;;;;;;;0.40;0.40;;;2.50;92.00;;;;;;10537186;28;20216;-80
2024/01/08 07:07:19;;;;;;;0.40;0.40;;;2.50;92.10;;;;;;10530002;28;20222;-76
2024/01/08 07:12:23;;;;;;;0.50;0.50;;;2.50;91.10;;;;;;10506422;28;20223;-80
2024/01/08 07:17:25;;;;;;;0.50;0.50;;;2.50;91.90;;;;;;10531844;28;20200;-79
2024/01/08 07:22:27;;;;;;;0.40;0.40;;;2.50;91.80;;;;;;10528434;28;20721;-79
2024/01/08 07:27:31;;;;;;;0.50;0.50;;;2.50;91.40;;;;;;10527415;28;20223;-79
2024/01/08 07:32:33;;;;;;;0.40;0.40;;;2.50;91.60;;;;;;10524498;28;20285;-78
2024/01/08 07:37:36;;;;;;;0.60;0.60;;;2.50;91.20;;;;;;10521112;28;20207;-77
2024/01/08 07:42:39;;;;;;;0.50;0.50;;;2.60;92.10;;;;;;10534468;28;20724;-79
2024/01/08 07:47:42;;;;;;;0.17;0.17;;;2.60;91.10;;;;;;10526858;28;20223;-80
2024/01/08 07:52:44;;;;;;;0.50;0.50;;;2.60;92.10;;;;;;10522649;28;20220;-79
2024/01/08 07:57:48;;;;;;;0.40;0.40;;;2.50;91.70;;;;;;10532673;28;20722;-79
2024/01/08 08:02:50;;;;;;;0.50;0.50;;;2.60;91.50;;;;;;10528178;28;20594;-79
2024/01/08 08:07:53;;;;;;;0.30;0.30;;;2.60;91.90;;;;;;10522869;28;20216;-79
2024/01/08 08:12:56;;;;;;;0.30;0.30;;;2.70;91.50;;;;;;10533171;28;20579;-77
2024/01/08 08:17:59;;;;;;;0.50;0.50;;;2.70;90.60;;;;;;10529502;28;20544;-79
2024/01/08 08:23:01;;;;;;;0.40;0.40;;;2.60;91.40;;;;;;10522934;28;20272;-79
2024/01/08 08:28:06;;;;;;;0.10;0.10;;;2.70;90.10;;;;;;10517306;28;20224;-77
2024/01/08 08:33:08;;;;;;;0.40;0.40;;;2.80;90.50;;;;;;10493377;28;20225;-81
2024/01/08 08:38:11;;;;;;;0.20;0.20;;;2.80;90.50;;;;;;10518556;28;20668;-78
2024/01/08 08:43:14;;;;;;;0.40;0.40;;;2.80;91.20;;;;;;10525192;28;20257;-79
2024/01/08 08:48:17;;;;;;;0.40;0.40;;;2.80;91.80;;;;;;10514335;28;20315;-78
2024/01/08 08:53:19;;;;;;;0.40;0.40;;;2.80;91.20;;;;;;10514629;28;20281;-78
2024/01/08 08:58:24;;;;;;;0.10;0.10;;;2.90;91.40;;;;;;10503124;28;20250;-79
2024/01/08 09:03:26;;;;;;;0.40;0.40;;;3.00;91.50;;;;;;10522229;28;20227;-80
2024/01/08 09:08:28;;;;;;;0.30;0.30;;;2.90;91.30;;;;;;10509574;28;20345;-77
2024/01/08 09:13:32;;;;;;;0.30;0.30;;;3.00;91.20;;;;;;10519543;28;20204;-80
2024/01/08 09:18:35;;;;;;;0.10;0.10;;;3.00;90.10;;;;;;10513704;28;20193;-78
2024/01/08 09:23:38;;;;;;;0.30;0.30;;;2.90;90.50;;;;;;10520847;28;20204;-80
2024/01/08 09:28:41;;;;;;;0.40;0.40;;;3.00;90.30;;;;;;10517132;28;20250;-76
2024/01/08 09:33:44;;;;;;;0.30;0.30;;;2.90;90.70;;;;;;10523512;28;20196;-79
2024/01/08 09:38:46;;;;;;;0.33;0.33;;;2.90;90.00;;;;;;10512819;28;20193;-78
2024/01/08 09:43:51;;;;;;;0.27;0.27;;;3.00;90.60;;;;;;10525484;28;20208;-78
2024/01/08 09:48:54;;;;;;;0.30;0.30;;;3.00;90.20;;;;;;10521190;28;20216;-79
2024/01/08 09:53:59;;;;;;;0.40;0.40;;;3.00;90.10;;;;;;10512012;28;20274;-78
2024/01/08 09:59:02;;;;;;;0.37;0.37;;;3.00;90.80;;;;;;10518794;28;20269;-79
2024/01/08 10:04:05;;;;;;;0.30;0.30;;;3.00;90.00;;;;;;10519841;28;20674;-78
2024/01/08 10:09:08;;;;;;;0.40;0.40;;;3.00;90.40;;;;;;10515828;28;20227;-79
2024/01/08 10:14:12;;;;;;;0.23;0.23;;;3.00;90.30;;;;;;10523678;28;20211;-79
2024/01/08 10:19:15;;;;;;;0.30;0.30;;;3.10;90.30;;;;;;10531399;28;20631;-78
2024/01/08 10:24:25;;;;;;;0.30;0.30;;;3.10;90.40;;;;;;10525323;28;20196;-79
2024/01/08 10:29:28;;;;;;;0.20;0.20;;;3.10;90.40;;;;;;10511794;28;20261;-78
2024/01/08 10:34:31;;;;;;;0.37;0.37;;;3.30;90.40;;;;;;10520163;28;20196;-79
2024/01/08 10:39:36;;;;;;;0.20;0.20;;;3.40;87.70;;;;;;10509719;28;20238;-81
2024/01/08 10:44:40;;;;;;;0.30;0.30;;;3.30;87.70;;;;;;10509549;28;20260;-80
2024/01/08 10:49:48;;;;;;;0.20;0.20;;;3.30;88.30;;;;;;10515353;28;20693;-80
2024/01/08 10:54:54;;;;;;;0.30;0.30;;;3.30;84.80;;;;;;10518168;28;20199;-79
2024/01/08 10:59:59;;;;;;;0.20;0.20;;;3.30;84.30;;;;;;10501744;28;20770;-79
2024/01/08 11:05:05;;;;;;;0.30;0.30;;;3.20;96.00;;;;;;10515216;28;20622;-78
2024/01/08 11:10:09;;;;;;;0.30;0.30;;;3.10;96.70;;;;;;10519838;28;20681;-79
2024/01/08 11:15:16;;;;;;;0.20;0.20;;;3.10;97.50;;;;;;10523911;28;20257;-79
2024/01/08 11:20:40;;;;;;;0.20;0.20;;;3.10;97.30;;;;;;10526552;28;20235;-79
2024/01/08 11:25:49;;;;;;;0.20;0.20;;;3.10;92.70;;;;;;10525927;28;20220;-80
2024/01/08 11:31:07;;;;;;;0.17;0.17;;;3.10;93.60;;;;;;10517220;28;20605;-78
2024/01/08 11:36:16;;;;;;;0.30;0.30;;;3.10;93.50;;;;;;10519225;28;20636;-80
2024/01/08 11:41:18;;;;;;;0.10;0.10;;;3.20;93.70;;;;;;10519133;28;20231;-80
2024/01/08 11:46:22;;;;;;;0.20;0.20;;;3.20;93.10;;;;;;10536480;28;20708;-79
2024/01/08 11:51:24;;;;;;;0.20;0.20;;;3.40;91.60;;;;;;10522075;28;20227;-80
2024/01/08 11:56:27;;;;;;;0.20;0.20;;;3.40;91.80;;;;;;10521084;28;20266;-79
2024/01/08 12:01:30;;;;;;;0.20;0.20;;;3.40;92.30;;;;;;10538607;28;20220;-78
2024/01/08 12:06:33;;;;;;;0.07;0.07;;;3.40;92.40;;;;;;10524127;28;20226;-77
2024/01/08 12:11:35;;;;;;;0.20;0.20;;;3.50;92.00;;;;;;10545395;28;20223;-80
2024/01/08 12:16:39;;;;;;;0.00;0.00;;;3.40;91.30;;;;;;10539155;28;20238;-79
2024/01/08 12:21:41;;;;;;;0.20;0.20;;;3.40;92.50;;;;;;10537569;28;20224;-78
2024/01/08 12:26:44;;;;;;;0.30;0.30;;;3.40;92.60;;;;;;10549440;28;20212;-79
2024/01/08 12:31:56;;;;;;;0.30;0.30;;;3.40;92.30;;;;;;10529419;28;20224;-79
2024/01/08 12:36:59;;;;;;;0.20;0.20;;;3.40;91.60;;;;;;10528793;28;20199;-79
2024/01/08 12:42:05;;;;;;;0.23;0.23;;;3.50;92.10;;;;;;10554231;28;20633;-78
2024/01/08 12:47:09;;;;;;;0.30;0.30;;;3.60;91.20;;;;;;10517194;28;20562;-80
2024/01/08 12:52:13;;;;;;;0.30;0.30;;;3.60;91.10;;;;;;10525094;28;20235;-80
2024/01/08 12:57:17;;;;;;;0.30;0.30;;;3.50;91.10;;;;;;10519957;28;20199;-79
2024/01/08 13:02:21;;;;;;;0.30;0.30;;;3.40;91.00;;;;;;10537160;28;20421;-79
2024/01/08 13:07:24;;;;;;;0.30;0.30;;;3.30;91.30;;;;;;10528061;28;20231;-79
2024/01/08 13:12:26;;;;;;;0.40;0.40;;;3.20;92.00;;;;;;10530681;28;20246;-79
2024/01/08 13:17:30;;;;;;;0.20;0.20;;;3.20;91.40;;;;;;10531935;28;20204;-78
2024/01/08 13:22:33;;;;;;;0.30;0.30;;;3.20;92.00;;;;;;10532946;28;20642;-78
2024/01/08 13:27:35;;;;;;;0.20;0.20;;;3.30;91.30;;;;;;10522611;28;20689;-79
2024/01/08 13:32:39;;;;;;;0.30;0.30;;;3.30;91.70;;;;;;10524431;28;20730;-79
2024/01/08 13:37:41;;;;;;;0.20;0.20;;;3.20;92.00;;;;;;10524063;28;20196;-78
2024/01/08 13:42:45;;;;;;;0.30;0.30;;;3.20;92.20;;;;;;10526279;28;20219;-79
2024/01/08 13:47:49;;;;;;;0.30;0.30;;;3.30;91.60;;;;;;10519322;28;20215;-78
2024/01/08 13:52:52;;;;;;;0.30;0.30;;;3.40;91.60;;;;;;10530166;28;20222;-79
2024/01/08 13:57:54;;;;;;;0.20;0.20;;;3.30;92.20;;;;;;10530527;28;20200;-78
2024/01/08 14:02:59;;;;;;;0.30;0.30;;;3.40;92.70;;;;;;10529290;28;20211;-78
2024/01/08 14:08:01;;;;;;;0.20;0.20;;;3.40;91.50;;;;;;10518689;28;20269;-78
2024/01/08 14:13:04;;;;;;;0.30;0.30;;;3.30;92.00;;;;;;10529857;28;20293;-79
2024/01/08 14:18:08;;;;;;;0.27;0.27;;;3.20;91.70;;;;;;10534696;28;20192;-80
2024/01/08 14:23:10;;;;;;;0.30;0.30;;;3.10;92.50;;;;;;10517031;28;20214;-79
2024/01/08 14:28:13;;;;;;;0.30;0.30;;;3.00;92.90;;;;;;10524559;28;20228;-79
2024/01/08 14:33:16;;;;;;;0.20;0.20;;;2.90;93.20;;;;;;10515487;28;20243;-79
2024/01/08 14:38:20;;;;;;;0.20;0.20;;;2.90;92.60;;;;;;10511347;28;20196;-80
2024/01/08 14:43:22;;;;;;;0.40;0.40;;;2.80;93.00;;;;;;10522850;28;20313;-79
2024/01/08 14:48:27;;;;;;;0.30;0.30;;;2.70;93.40;;;;;;10497266;28;20278;-79
2024/01/08 14:53:29;;;;;;;0.40;0.40;;;2.70;93.10;;;;;;10518320;28;20576;-79
2024/01/08 14:58:31;;;;;;;0.40;0.40;;;2.60;93.70;;;;;;10516837;28;20192;-79
2024/01/08 15:03:35;;;;;;;0.40;0.40;;;2.60;93.90;;;;;;10527765;28;20249;-78
2024/01/08 15:08:39;;;;;;;0.30;0.30;;;2.50;93.30;;;;;;10506055;28;20228;-78
2024/01/08 15:13:42;;;;;;;0.30;0.30;;;2.40;93.40;;;;;;10519628;28;20225;-78
2024/01/08 15:18:45;;;;;;;0.40;0.40;;;2.40;93.40;;;;;;10526796;28;20241;-79
2024/01/08 15:23:48;;;;;;;0.30;0.30;;;2.30;93.60;;;;;;10530763;28;20718;-81
2024/01/08 15:28:50;;;;;;;0.40;0.40;;;2.20;93.20;;;;;;10519467;28;20223;-77
2024/01/08 15:33:54;;;;;;;0.50;0.50;;;2.20;93.70;;;;;;10509262;28;20196;-79
2024/01/08 15:38:56;;;;;;;0.50;0.50;;;2.10;93.70;;;;;;10516115;28;20277;-78
2024/01/08 15:43:59;;;;;;;0.30;0.30;;;;;;;;;;10498496;28;20673;-78
2024/01/08 15:49:03;;;;;;;0.40;0.40;;;;;;;;;;10496866;28;20238;-77
2024/01/08 15:54:05;;;;;;;0.40;0.40;;;2.00;99.90;;;;;;10514259;28;20204;-78
2024/01/08 15:59:08;;;;;;;0.50;0.50;;;;;;;;;;10506106;28;20600;-77
2024/01/08 16:04:12;;;;;;;0.30;0.30;;;;;;;;;;10501799;28;20197;-78
2024/01/08 16:09:15;;;;;;;0.30;0.30;;;;;;;;;;10509265;28;20223;-78
2024/01/08 16:14:17;;;;;;;0.37;0.37;;;;;;;;;;10508311;28;20207;-77
2024/01/08 16:19:22;;;;;;;0.40;0.40;;;;;;;;;;10512439;28;20727;-78
2024/01/08 16:24:24;;;;;;;0.40;0.40;;;;;;;;;;10508226;28;20200;-77
2024/01/08 16:29:27;;;;;;;0.10;0.10;;;;;;;;;;10508493;28;20239;-76
2024/01/08 16:34:31;;;;;;;0.40;0.40;;;;;;;;;;10505306;28;20789;-78
2024/01/08 16:39:34;;;;;;;0.30;0.30;;;;;;;;;;10505737;28;20512;-79
2024/01/08 16:44:36;;;;;;;0.30;0.30;;;;;;;;;;10511278;28;20201;-78
2024/01/08 16:49:40;;;;;;;0.20;0.20;;;;;;;;;;10514086;28;20231;-76
2024/01/08 16:54:43;;;;;;;0.40;0.40;;;;;;;;;;10510910;28;20595;-80
2024/01/08 16:59:46;;;;;;;0.30;0.30;;;;;;;;;;10512348;28;20223;-78
2024/01/08 17:04:50;;;;;;;0.10;0.10;;;;;;;;;;10510214;28;20201;-78
2024/01/08 17:09:53;;;;;;;0.40;0.40;;;2.10;99.90;;;;;;10509868;28;20781;-79
2024/01/08 17:14:55;;;;;;;0.40;0.40;;;2.10;99.90;;;;;;10514531;28;20257;-79
2024/01/08 17:20:00;;;;;;;0.40;0.40;;;2.10;99.90;;;;;;10510473;28;20228;-78
2024/01/08 17:25:03;;;;;;;0.50;0.50;;;2.10;99.90;;;;;;10516000;28;20207;-78
2024/01/08 17:30:07;;;;;;;0.40;0.40;;;2.00;99.90;;;;;;10510056;28;20277;-78
2024/01/08 17:35:12;;;;;;;0.40;0.40;;;2.10;99.90;;;;;;10499807;28;20209;-79
2024/01/08 17:40:15;;;;;;;0.40;0.40;;;2.10;99.90;;;;;;10516320;28;20227;-78
2024/01/08 17:45:18;;;;;;;0.40;0.40;;;2.10;99.90;;;;;;10510970;28;20340;-78
2024/01/08 17:50:21;;;;;;;0.50;0.50;;;2.00;99.90;;;;;;10509669;28;20236;-78
2024/01/08 17:55:24;;;;;;;0.33;0.33;;;2.00;99.90;;;;;;10512378;28;20752;-79
2024/01/08 18:00:26;;;;;;;0.43;0.43;;;2.00;99.90;;;;;;10526508;28;20228;-78
2024/01/08 18:05:30;;;;;;;0.40;0.40;;;;;;;;;;10505297;28;20196;-78
2024/01/08 18:10:33;;;;;;;0.20;0.20;;;;;;;;;;10512842;28;20239;-79
2024/01/08 18:15:36;;;;;;;0.40;0.40;;;;;;;;;;10517351;28;20602;-77
2024/01/08 18:20:42;;;;;;;0.40;0.40;;;;;;;;;;10516233;28;20212;-77
2024/01/08 18:25:44;;;;;;;0.43;0.43;;;;;;;;;;10496218;28;20184;-79
2024/01/08 18:30:47;;;;;;;0.40;0.40;;;;;;;;;;10507552;28;20265;-78
2024/01/08 18:35:51;;;;;;;0.40;0.40;;;;;;;;;;10507028;28;20760;-79
2024/01/08 18:40:54;;;;;;;0.43;0.43;;;;;;;;;;10507352;28;20265;-78
2024/01/08 18:45:56;;;;;;;0.43;0.43;;;;;;;;;;10512302;28;20207;-77
2024/01/08 18:51:00;;;;;;;0.50;0.50;;;;;;;;;;10520412;28;20231;-77
2024/01/08 18:56:03;;;;;;;0.40;0.40;;;;;;;;;;10511727;28;20723;-76
2024/01/08 19:01:06;;;;;;;0.30;0.30;;;;;;;;;;10519824;28;20706;-77
2024/01/08 19:06:11;;;;;;;0.30;0.30;;;;;;;;;;10517312;28;20196;-77
2024/01/08 19:11:13;;;;;;;0.30;0.30;;;;;;;;;;10517574;28;20773;-78
2024/01/08 19:16:17;;;;;;;0.30;0.30;;;;;;;;;;10506242;28;20258;-77
2024/01/08 19:21:22;;;;;;;0.30;0.30;;;;;;;;;;10511768;28;20213;-79
2024/01/08 19:26:24;;;;;;;0.30;0.30;;;;;;;;;;10506165;28;20257;-76
2024/01/08 19:31:27;;;;;;;0.30;0.30;;;;;;;;;;10517902;28;20571;-78
2024/01/08 19:36:31;;;;;;;0.40;0.40;;;;;;;;;;10512796;28;20216;-80
2024/01/08 19:41:34;;;;;;;0.40;0.40;;;;;;;;;;10509681;28;20281;-79
2024/01/08 19:46:37;;;;;;;0.40;0.40;;;;;;;;;;10517784;28;20205;-78
2024/01/08 19:51:41;;;;;;;0.20;0.20;;;;;;;;;;10511659;28;20547;-78
2024/01/08 19:56:44;;;;;;;0.30;0.30;;;;;;;;;;10509511;28;20532;-77
2024/01/08 20:01:47;;;;;;;0.40;0.40;;;;;;;;;;10496421;28;20215;-80
2024/01/08 20:06:51;;;;;;;0.50;0.50;;;;;;;;;;10503027;28;20211;-77
2024/01/08 20:11:54;;;;;;;0.40;0.40;;;;;;;;;;10507708;28;20261;-78
2024/01/08 20:16:57;;;;;;;0.47;0.47;;;;;;;;;;10507533;28;20213;-76
2024/01/08 20:22:01;;;;;;;0.50;0.50;;;;;;;;;;10510547;28;20212;-76
2024/01/08 20:27:04;;;;;;;0.40;0.40;;;;;;;;;;10495202;28;20212;-78
2024/01/08 20:32:07;;;;;;;0.50;0.50;;;;;;;;;;10518436;28;20754;-79
2024/01/08 20:37:11;;;;;;;0.40;0.40;;;;;;;;;;10506811;28;20348;-78
2024/01/08 20:42:14;;;;;;;0.40;0.40;;;;;;;;;;10503540;28;20297;-79
2024/01/08 20:47:17;;;;;;;0.40;0.40;;;;;;;;;;10514703;28;20273;-80
2024/01/08 20:52:21;;;;;;;0.40;0.40;;;;;;;;;;10512981;28;20652;-79
2024/01/08 20:57:24;;;;;;;0.40;0.40;;;;;;;;;;10510797;28;20592;-80
2024/01/08 21:02:27;;;;;;;0.40;0.40;;;;;;;;;;10523589;28;20208;-77
2024/01/08 21:07:31;;;;;;;0.30;0.30;;;;;;;;;;10513990;28;20254;-78
2024/01/08 21:12:34;;;;;;;0.40;0.40;;;;;;;;;;10513387;28;20223;-79
2024/01/08 21:17:37;;;;;;;0.40;0.40;;;;;;;;;;10512754;28;20207;-77
2024/01/08 21:22:41;;;;;;;0.50;0.50;;;;;;;;;;10506003;28;20269;-78
2024/01/08 21:27:44;;;;;;;0.50;0.50;;;;;;;;;;10507502;28;20207;-80
2024/01/08 21:32:47;;;;;;;0.30;0.30;;;;;;;;;;10518035;28;20224;-79
2024/01/08 21:37:51;;;;;;;0.30;0.30;;;;;;;;;;10513379;28;20258;-78
2024/01/08 21:42:53;;;;;;;0.30;0.30;;;;;;;;;;10517175;28;20263;-79
2024/01/08 21:47:56;;;;;;;0.40;0.40;;;;;;;;;;10510675;28;20664;-79
2024/01/08 21:53:00;;;;;;;0.30;0.30;;;;;;;;;;10521105;28;20273;-78
2024/01/08 21:58:03;;;;;;;0.30;0.30;;;;;;;;;;10519207;28;20207;-79
2024/01/08 22:03:06;;;;;;;0.30;0.30;;;;;;;;;;10501898;28;20217;-78
2024/01/08 22:08:10;;;;;;;0.30;0.30;;;;;;;;;;10507014;28;20199;-78
2024/01/08 22:13:12;;;;;;;0.40;0.40;;;;;;;;;;10495400;28;20311;-79
2024/01/08 22:18:15;;;;;;;0.43;0.43;;;;;;;;;;10497041;28;20666;-76
2024/01/08 22:23:21;;;;;;;0.40;0.40;;;;;;;;;;10490724;28;20226;-78
2024/01/08 22:28:24;;;;;;;0.30;0.30;;;;;;;;;;10507571;28;20268;-79
2024/01/08 22:33:27;;;;;;;0.33;0.33;;;;;;;;;;10517239;28;20608;-78
2024/01/08 22:38:31;;;;;;;0.40;0.40;;;;;;;;;;10516110;28;20196;-78
2024/01/08 22:43:34;;;;;;;0.40;0.40;;;;;;;;;;10500130;28;20201;-77
2024/01/08 22:48:36;;;;;;;0.50;0.50;;;;;;;;;;10503595;28;20241;-77
2024/01/08 22:53:40;;;;;;;0.40;0.40;;;;;;;;;;10494195;28;20208;-77
2024/01/08 22:58:43;;;;;;;0.30;0.30;;;;;;;;;;10514909;28;20204;-78
2024/01/08 23:03:46;;;;;;;0.40;0.40;;;;;;;;;;10505455;28;20207;-77
2024/01/08 23:08:50;;;;;;;0.40;0.40;;;;;;;;;;10498250;28;20209;-76
2024/01/08 23:13:52;;;;;;;0.40;0.40;;;;;;;;;;10506642;28;20696;-76
2024/01/08 23:18:55;;;;;;;0.40;0.40;;;;;;;;;;10505019;28;20228;-78
2024/01/08 23:23:59;;;;;;;0.50;0.50;;;;;;;;;;10510549;28;20208;-76
2024/01/08 23:29:02;;;;;;;0.50;0.50;;;;;;;;;;10504714;28;20231;-77
2024/01/08 23:34:04;;;;;;;0.40;0.40;;;;;;;;;;10514425;28;20638;-78
2024/01/08 23:39:08;;;;;;;0.50;0.50;;;;;;;;;;10514680;28;20224;-79
2024/01/08 23:44:11;;;;;;;0.30;0.30;;;0.50;81.10;;;;;;10519245;28;20609;-77
2024/01/08 23:49:13;;;;;;;0.50;0.50;;;0.40;82.40;;;;;;10523966;28;20257;-77
2024/01/08 23:54:17;;;;;;;0.40;0.40;;;0.30;83.20;;;;;;10515052;28;20697;-78
2024/01/08 23:59:20;;;;;;;0.40;0.40;;;0.30;84.00;;;;;;10506858;28;20221;-77
